createdAt,value
2018-07-05T00:02:28.798Z,23.57
2018-07-05T00:05:08.860Z,23.54
2018-07-05T00:07:49.116Z,23.51
2018-07-05T00:10:28.960Z,23.49
2018-07-05T00:13:09.414Z,23.47
2018-07-05T00:15:49.455Z,23.49
2018-07-05T00:18:29.633Z,23.49
2018-07-05T00:21:09.657Z,23.49
2018-07-05T00:23:50.037Z,23.55
2018-07-05T00:26:29.983Z,23.58
2018-07-05T00:29:10.373Z,23.48
2018-07-05T00:31:50.178Z,23.45
2018-07-05T00:34:30.148Z,23.47
2018-07-05T00:37:10.213Z,23.48
2018-07-05T00:39:50.468Z,23.45
2018-07-05T00:42:30.290Z,23.47
2018-07-05T00:45:10.287Z,23.48
2018-07-05T00:47:50.198Z,23.46
2018-07-05T00:50:29.990Z,23.49
2018-07-05T00:53:09.885Z,23.44
2018-07-05T00:55:50.462Z,23.43
2018-07-05T00:58:30.401Z,23.42
2018-07-05T01:01:10.531Z,23.39
2018-07-05T01:03:50.521Z,23.40
2018-07-05T01:06:30.898Z,23.40
2018-07-05T01:09:10.725Z,23.42
2018-07-05T01:11:51.341Z,23.42
2018-07-05T01:14:31.143Z,23.44
2018-07-05T01:17:11.278Z,23.45
2018-07-05T01:19:51.250Z,23.43
2018-07-05T01:22:31.451Z,23.42
2018-07-05T01:25:11.514Z,23.42
2018-07-05T01:27:51.732Z,23.41
2018-07-05T01:30:31.777Z,23.39
2018-07-05T01:33:12.069Z,23.36
2018-07-05T01:35:52.078Z,23.37
2018-07-05T01:38:32.462Z,23.39
2018-07-05T01:41:12.240Z,23.57
2018-07-05T01:43:52.210Z,23.46
2018-07-05T01:46:32.197Z,23.40
2018-07-05T01:49:12.331Z,23.37
2018-07-05T01:51:52.412Z,23.34
2018-07-05T01:54:32.497Z,23.33
2018-07-05T01:57:12.593Z,23.32
2018-07-05T01:59:52.985Z,23.30
2018-07-05T02:02:33.037Z,23.30
2018-07-05T02:05:13.136Z,23.27
2018-07-05T02:07:53.138Z,23.28
2018-07-05T02:10:33.405Z,23.26
2018-07-05T02:13:13.351Z,23.25
2018-07-05T02:15:54.031Z,23.24
2018-07-05T02:18:33.963Z,23.23
2018-07-05T02:21:14.843Z,23.23
2018-07-05T02:23:54.879Z,23.21
2018-07-05T02:26:35.113Z,23.21
2018-07-05T02:29:14.999Z,23.16
2018-07-05T02:31:55.483Z,23.16
2018-07-05T02:34:35.422Z,23.17
2018-07-05T02:37:20.913Z,23.20
2018-07-05T02:40:00.968Z,23.21
2018-07-05T02:42:41.026Z,23.20
2018-07-05T02:45:20.942Z,23.22
2018-07-05T02:48:01.531Z,23.27
2018-07-05T02:50:41.668Z,23.20
2018-07-05T02:53:21.890Z,23.17
2018-07-05T02:56:01.587Z,23.18
2018-07-05T02:58:42.154Z,23.19
2018-07-05T03:01:22.316Z,23.18
2018-07-05T03:04:02.246Z,23.20
2018-07-05T03:06:42.307Z,23.17
2018-07-05T03:09:22.574Z,23.19
2018-07-05T03:12:02.557Z,23.21
2018-07-05T03:14:43.199Z,23.16
2018-07-05T03:17:23.131Z,23.17
2018-07-05T03:20:03.671Z,23.14
2018-07-05T03:22:43.742Z,23.18
2018-07-05T03:25:23.985Z,23.17
2018-07-05T03:28:03.955Z,23.16
2018-07-05T03:30:44.138Z,23.24
2018-07-05T03:33:24.272Z,23.18
2018-07-05T03:36:04.654Z,23.27
2018-07-05T03:38:45.620Z,23.22
2018-07-05T03:41:25.535Z,23.20
2018-07-05T03:44:05.835Z,23.22
2018-07-05T03:46:45.724Z,23.23
2018-07-05T03:49:26.078Z,23.12
2018-07-05T03:52:06.002Z,23.12
2018-07-05T03:54:46.240Z,23.17
2018-07-05T03:57:25.962Z,23.43
2018-07-05T04:00:06.448Z,23.41
2018-07-05T04:02:46.380Z,23.47
2018-07-05T04:05:26.467Z,24.75
2018-07-05T04:08:06.259Z,24.62
2018-07-05T04:10:46.781Z,24.28
2018-07-05T04:13:26.797Z,24.18
2018-07-05T04:16:06.636Z,25.13
2018-07-05T04:18:46.296Z,25.12
2018-07-05T04:21:28.619Z,24.94
2018-07-05T04:24:08.663Z,24.74
2018-07-05T04:26:48.732Z,24.59
2018-07-05T04:29:28.536Z,24.53
2018-07-05T04:32:08.837Z,24.52
2018-07-05T04:34:48.869Z,24.35
2018-07-05T04:37:28.860Z,24.23
2018-07-05T04:40:08.678Z,23.96
2018-07-05T04:42:48.807Z,23.63
2018-07-05T04:45:28.665Z,23.42
2018-07-05T04:48:08.547Z,23.21
2018-07-05T04:50:48.587Z,23.21
2018-07-05T04:53:28.955Z,23.06
2018-07-05T04:56:08.878Z,23.13
2018-07-05T04:58:49.246Z,23.16
2018-07-05T05:01:29.840Z,23.34
2018-07-05T05:04:09.928Z,23.16
2018-07-05T05:06:49.824Z,23.38
2018-07-05T05:09:30.086Z,23.40
2018-07-05T05:12:10.022Z,23.38
2018-07-05T05:14:50.564Z,23.40
2018-07-05T05:17:30.555Z,23.34
2018-07-05T05:20:10.662Z,23.37
2018-07-05T05:22:50.531Z,23.39
2018-07-05T05:25:30.817Z,23.42
2018-07-05T05:28:10.650Z,23.41
2018-07-05T05:30:51.026Z,23.46
2018-07-05T05:33:30.768Z,23.56
2018-07-05T05:36:11.134Z,23.55
2018-07-05T05:38:51.136Z,23.55
2018-07-05T05:41:31.748Z,23.61
2018-07-05T05:44:11.550Z,23.52
2018-07-05T05:46:51.966Z,23.58
2018-07-05T05:49:31.998Z,23.53
2018-07-05T05:52:12.300Z,23.57
2018-07-05T05:54:52.202Z,23.61
2018-07-05T05:57:32.559Z,23.62
2018-07-05T06:00:12.634Z,23.60
2018-07-05T06:02:53.298Z,23.62
2018-07-05T06:05:33.374Z,23.59
2018-07-05T06:08:13.847Z,23.52
2018-07-05T06:10:53.598Z,23.53
2018-07-05T06:13:33.954Z,23.59
2018-07-05T06:16:13.869Z,23.54
2018-07-05T06:18:54.335Z,23.53
2018-07-05T06:21:34.279Z,23.55
2018-07-05T06:24:14.557Z,23.52
2018-07-05T06:26:54.396Z,23.52
2018-07-05T06:29:35.297Z,23.49
2018-07-05T06:32:15.419Z,23.49
2018-07-05T06:34:55.703Z,23.49
2018-07-05T06:37:35.819Z,23.49
2018-07-05T06:40:16.413Z,23.49
2018-07-05T06:42:56.444Z,23.49
2018-07-05T06:45:36.851Z,23.48
2018-07-05T06:48:16.850Z,23.48
2018-07-05T06:50:57.333Z,23.49
2018-07-05T06:53:37.175Z,23.50
2018-07-05T06:56:17.568Z,23.48
2018-07-05T06:58:57.333Z,23.47
2018-07-05T07:01:37.598Z,23.47
2018-07-05T07:04:17.502Z,23.50
2018-07-05T07:06:57.458Z,23.47
2018-07-05T07:09:37.281Z,23.38
2018-07-05T07:12:17.762Z,23.35
2018-07-05T07:14:57.601Z,23.40
2018-07-05T07:17:37.810Z,23.40
2018-07-05T07:20:17.809Z,23.41
2018-07-05T07:22:58.172Z,23.44
2018-07-05T07:25:38.117Z,23.43
2018-07-05T07:28:18.872Z,23.45
2018-07-05T07:30:59.164Z,23.49
2018-07-05T07:33:39.103Z,23.53
2018-07-05T07:36:19.154Z,23.49
2018-07-05T07:38:59.606Z,23.52
2018-07-05T07:41:39.341Z,23.45
2018-07-05T07:44:07.182Z,23.49
2018-07-05T07:46:34.564Z,23.62
2018-07-05T07:49:02.042Z,23.54
2018-07-05T07:51:30.238Z,23.52
2018-07-05T07:53:57.761Z,23.67
2018-07-05T07:56:25.217Z,23.62
2018-07-05T07:58:52.724Z,23.60
2018-07-05T08:01:20.259Z,23.63
2018-07-05T08:03:47.813Z,23.65
2018-07-05T08:06:15.726Z,23.70
2018-07-05T08:08:43.234Z,23.71
2018-07-05T08:11:10.695Z,23.70
2018-07-05T08:13:38.186Z,23.64
2018-07-05T08:16:05.664Z,23.61
2018-07-05T08:18:33.155Z,23.60
2018-07-05T08:21:00.626Z,23.55
2018-07-05T08:23:28.083Z,23.70
2018-07-05T08:25:55.540Z,23.83
2018-07-05T08:28:23.120Z,23.72
2018-07-05T08:30:50.562Z,23.71
2018-07-05T08:33:18.457Z,23.73
2018-07-05T08:35:45.994Z,23.69
2018-07-05T08:38:13.430Z,23.78
2018-07-05T08:40:40.950Z,23.73
2018-07-05T08:43:08.477Z,23.85
2018-07-05T08:45:36.037Z,23.78
2018-07-05T08:48:03.864Z,23.93
2018-07-05T08:50:31.353Z,23.83
2018-07-05T08:52:58.908Z,23.87
2018-07-05T08:55:26.398Z,23.81
2018-07-05T08:57:53.954Z,23.90
2018-07-05T09:00:21.497Z,23.89
2018-07-05T09:02:49.042Z,24.01
2018-07-05T09:05:16.506Z,23.94
2018-07-05T09:07:44.400Z,24.00
2018-07-05T09:10:11.791Z,23.89
2018-07-05T09:12:39.194Z,23.89
2018-07-05T09:15:07.078Z,23.81
2018-07-05T09:17:34.698Z,23.78
2018-07-05T09:20:02.191Z,23.81
2018-07-05T09:22:30.078Z,23.79
2018-07-05T09:24:57.628Z,23.83
2018-07-05T09:27:25.168Z,23.84
2018-07-05T09:29:52.676Z,23.80
2018-07-05T09:32:20.198Z,23.77
2018-07-05T09:34:47.639Z,23.80
2018-07-05T09:37:15.566Z,23.82
2018-07-05T09:39:49.143Z,23.84
2018-07-05T09:42:17.819Z,23.81
2018-07-05T09:44:45.263Z,23.82
2018-07-05T09:47:12.722Z,23.80
2018-07-05T09:49:40.606Z,23.84
2018-07-05T09:52:08.054Z,23.84
2018-07-05T09:54:35.504Z,23.81
2018-07-05T09:57:03.501Z,23.78
2018-07-05T09:59:31.034Z,23.84
2018-07-05T10:01:58.624Z,23.85
2018-07-05T10:04:26.413Z,23.80
2018-07-05T10:06:53.922Z,23.84
2018-07-05T10:09:21.382Z,23.84
2018-07-05T10:11:49.373Z,23.85
2018-07-05T10:14:16.811Z,23.84
2018-07-05T10:16:44.253Z,23.80
2018-07-05T10:19:11.954Z,23.90
2018-07-05T10:21:39.471Z,23.95
2018-07-05T10:24:07.036Z,23.94
2018-07-05T10:26:34.825Z,23.97
2018-07-05T10:29:14.768Z,24.03
2018-07-05T10:31:54.749Z,23.94
2018-07-05T10:34:22.274Z,23.96
2018-07-05T10:36:49.720Z,23.97
2018-07-05T10:39:17.223Z,24.08
2018-07-05T10:41:57.138Z,24.04
2018-07-05T10:44:37.534Z,24.07
2018-07-05T10:47:17.614Z,24.09
2018-07-05T10:49:58.043Z,24.00
2018-07-05T10:52:38.080Z,24.01
2018-07-05T10:55:18.310Z,24.05
2018-07-05T10:57:58.365Z,24.11
2018-07-05T11:00:38.593Z,24.08
2018-07-05T11:03:18.495Z,24.19
2018-07-05T11:05:58.774Z,24.15
2018-07-05T11:08:38.570Z,24.08
2018-07-05T11:11:19.049Z,24.06
2018-07-05T11:13:58.842Z,24.11
2018-07-05T11:16:38.839Z,24.15
2018-07-05T11:19:18.718Z,24.16
2018-07-05T11:21:58.604Z,24.17
2018-07-05T11:24:38.616Z,24.13
2018-07-05T11:27:18.473Z,24.08
2018-07-05T11:29:58.322Z,24.21
2018-07-05T11:32:38.691Z,24.13
2018-07-05T11:35:18.502Z,24.09
2018-07-05T11:37:58.900Z,24.15
2018-07-05T11:40:38.834Z,24.18
2018-07-05T11:43:19.413Z,24.25
2018-07-05T11:45:59.261Z,24.25
2018-07-05T11:48:39.230Z,24.22
2018-07-05T11:51:19.253Z,24.11
2018-07-05T11:53:59.727Z,24.08
2018-07-05T11:56:39.556Z,24.17
2018-07-05T11:59:20.045Z,24.16
2018-07-05T12:01:59.938Z,24.29
2018-07-05T12:04:40.361Z,24.23
2018-07-05T12:07:20.282Z,24.17
2018-07-05T12:10:00.792Z,24.22
2018-07-05T12:12:40.610Z,24.25
2018-07-05T12:15:20.593Z,24.20
2018-07-05T12:18:00.358Z,24.21
2018-07-05T12:20:40.981Z,24.25
2018-07-05T12:23:20.920Z,24.19
2018-07-05T12:26:01.328Z,24.23
2018-07-05T12:28:41.104Z,24.22
2018-07-05T12:31:21.163Z,24.23
2018-07-05T12:34:01.039Z,24.20
2018-07-05T12:36:41.139Z,24.19
2018-07-05T12:39:21.090Z,24.21
2018-07-05T12:42:01.222Z,24.26
2018-07-05T12:44:41.237Z,24.23
2018-07-05T12:47:21.523Z,24.17
2018-07-05T12:50:01.350Z,24.23
2018-07-05T12:52:41.658Z,24.24
2018-07-05T12:55:21.558Z,24.26
2018-07-05T12:58:01.848Z,24.19
2018-07-05T13:00:41.622Z,24.18
2018-07-05T13:03:22.347Z,24.16
2018-07-05T13:06:02.174Z,24.21
2018-07-05T13:08:42.865Z,24.25
2018-07-05T13:11:22.703Z,24.21
2018-07-05T13:14:02.582Z,24.27
2018-07-05T13:16:42.384Z,24.31
2018-07-05T13:19:22.886Z,24.29
2018-07-05T13:22:02.936Z,24.29
2018-07-05T13:24:42.991Z,24.31
2018-07-05T13:27:22.910Z,24.26
2018-07-05T13:30:03.059Z,24.24
2018-07-05T13:32:42.917Z,24.34
2018-07-05T13:35:23.316Z,24.32
2018-07-05T13:38:03.453Z,24.36
2018-07-05T13:40:43.623Z,24.41
2018-07-05T13:43:26.408Z,24.34
2018-07-05T13:46:06.895Z,24.40
2018-07-05T13:48:46.827Z,24.32
2018-07-05T13:51:27.312Z,24.33
2018-07-05T13:54:07.551Z,24.39
2018-07-05T13:56:47.818Z,24.45
2018-07-05T13:59:27.754Z,24.41
2018-07-05T14:02:07.761Z,24.37
2018-07-05T14:04:47.476Z,24.41
2018-07-05T14:07:27.817Z,24.48
2018-07-05T14:10:07.775Z,24.45
2018-07-05T14:12:47.711Z,24.44
2018-07-05T14:15:27.660Z,24.46
2018-07-05T14:18:07.684Z,24.55
2018-07-05T14:20:47.691Z,24.58
2018-07-05T14:23:27.658Z,24.59
2018-07-05T14:26:07.887Z,24.62
2018-07-05T14:28:48.071Z,24.64
2018-07-05T14:31:28.004Z,24.62
2018-07-05T14:34:08.330Z,24.44
2018-07-05T14:36:48.283Z,24.52
2018-07-05T14:39:28.378Z,24.52
2018-07-05T14:42:08.302Z,24.58
2018-07-05T14:44:49.201Z,24.55
2018-07-05T14:47:29.291Z,24.50
2018-07-05T14:50:09.602Z,24.51
2018-07-05T14:52:49.531Z,24.49
2018-07-05T14:55:29.815Z,24.53
2018-07-05T14:58:09.733Z,24.56
2018-07-05T15:00:50.126Z,24.56
2018-07-05T15:03:29.962Z,24.54
2018-07-05T15:06:10.481Z,24.47
2018-07-05T15:08:50.250Z,24.49
2018-07-05T15:11:30.543Z,24.51
2018-07-05T15:14:10.467Z,24.47
2018-07-05T15:16:51.293Z,24.47
2018-07-05T15:19:31.176Z,24.51
2018-07-05T15:22:11.659Z,24.50
2018-07-05T15:24:51.600Z,24.51
2018-07-05T15:27:31.768Z,24.47
2018-07-05T15:30:11.562Z,24.53
2018-07-05T15:32:52.003Z,24.52
2018-07-05T15:35:31.931Z,24.56
2018-07-05T15:38:12.418Z,24.55
2018-07-05T15:40:52.576Z,24.62
2018-07-05T15:43:32.846Z,24.57
2018-07-05T15:46:12.751Z,24.54
2018-07-05T15:48:53.255Z,24.60
2018-07-05T15:51:33.086Z,24.63
2018-07-05T15:54:13.064Z,24.63
2018-07-05T15:56:53.003Z,24.62
2018-07-05T15:59:32.949Z,24.56
2018-07-05T16:02:12.969Z,24.54
2018-07-05T16:04:53.157Z,24.54
2018-07-05T16:07:33.190Z,24.55
2018-07-05T16:10:13.500Z,24.67
2018-07-05T16:12:53.501Z,24.75
2018-07-05T16:15:33.672Z,24.79
2018-07-05T16:18:13.606Z,24.88
2018-07-05T16:20:53.709Z,24.93
2018-07-05T16:23:33.625Z,24.98
2018-07-05T16:26:13.896Z,25.02
2018-07-05T16:28:53.924Z,25.05
2018-07-05T16:31:34.219Z,24.97
2018-07-05T16:34:14.236Z,25.07
2018-07-05T16:36:54.564Z,25.12
2018-07-05T16:39:34.438Z,25.13
2018-07-05T16:42:14.464Z,25.12
2018-07-05T16:44:54.508Z,25.19
2018-07-05T16:47:34.941Z,25.24
2018-07-05T16:50:14.858Z,25.15
2018-07-05T16:52:55.147Z,25.08
2018-07-05T16:55:34.982Z,25.22
2018-07-05T16:58:14.953Z,25.26
2018-07-05T17:00:54.874Z,25.24
2018-07-05T17:03:35.357Z,25.18
2018-07-05T17:06:15.200Z,25.18
2018-07-05T17:08:55.980Z,25.13
2018-07-05T17:11:36.014Z,25.06
2018-07-05T17:14:16.069Z,25.23
2018-07-05T17:16:55.945Z,25.42
2018-07-05T17:19:35.851Z,25.72
2018-07-05T17:29:14.387Z,26.43
2018-07-05T17:31:54.060Z,26.38
2018-07-05T17:34:34.446Z,25.60
2018-07-05T17:37:14.375Z,25.55
2018-07-05T17:39:54.451Z,25.46
2018-07-05T17:42:34.196Z,25.49
2018-07-05T17:45:14.766Z,25.38
2018-07-05T17:47:54.820Z,25.42
2018-07-05T17:50:34.569Z,25.35
2018-07-05T17:53:14.605Z,25.41
2018-07-05T17:55:55.485Z,25.26
2018-07-05T17:58:35.335Z,25.25
2018-07-05T18:01:15.515Z,25.15
2018-07-05T18:03:55.322Z,25.13
2018-07-05T18:06:35.805Z,25.13
2018-07-05T18:09:15.741Z,25.13
2018-07-05T18:11:56.075Z,25.04
2018-07-05T18:14:35.957Z,25.03
2018-07-05T18:17:15.892Z,24.98
2018-07-05T18:19:55.959Z,24.93
2018-07-05T18:29:34.404Z,24.86
2018-07-05T18:32:14.474Z,24.88
2018-07-05T18:34:54.425Z,24.94
2018-07-05T18:37:34.898Z,24.99
2018-07-05T18:40:14.975Z,25.09
2018-07-05T18:42:54.889Z,25.20
2018-07-05T18:45:35.288Z,25.25
2018-07-05T18:48:15.354Z,25.05
2018-07-05T18:50:55.494Z,24.99
2018-07-05T18:53:35.355Z,24.89
2018-07-05T18:56:15.203Z,24.84
2018-07-05T18:58:55.207Z,24.81
2018-07-05T19:01:35.391Z,24.85
2018-07-05T19:04:15.322Z,24.82
2018-07-05T19:06:55.706Z,24.81
2018-07-05T19:09:35.539Z,24.78
2018-07-05T19:12:15.541Z,24.69
2018-07-05T19:14:55.563Z,24.67
2018-07-05T19:17:35.570Z,24.68
2018-07-05T19:20:15.482Z,24.65
2018-07-05T19:22:55.844Z,24.64
2018-07-05T19:25:35.507Z,24.63
2018-07-05T19:28:15.653Z,24.63
2018-07-05T19:30:55.567Z,24.62
2018-07-05T19:33:35.719Z,24.54
2018-07-05T19:36:15.765Z,24.47
2018-07-05T19:38:55.750Z,24.44
2018-07-05T19:44:09.243Z,24.49
2018-07-05T19:46:49.210Z,24.63
2018-07-05T19:49:29.671Z,24.55
2018-07-05T19:52:09.828Z,24.58
2018-07-05T19:54:50.160Z,24.60
2018-07-05T19:57:30.070Z,24.71
2018-07-05T20:00:11.106Z,24.73
2018-07-05T20:02:51.082Z,24.61
2018-07-05T20:05:31.009Z,24.60
2018-07-05T20:08:11.092Z,24.51
2018-07-05T20:10:55.558Z,24.47
2018-07-05T20:13:35.503Z,24.53
2018-07-05T20:16:15.550Z,24.45
2018-07-05T20:18:55.676Z,24.51
2018-07-05T20:21:36.691Z,24.42
2018-07-05T20:24:16.485Z,24.39
2018-07-05T20:26:56.996Z,25.02
2018-07-05T20:29:37.022Z,24.89
2018-07-05T20:32:17.272Z,24.79
2018-07-05T20:34:57.238Z,24.81
2018-07-05T20:37:37.009Z,24.72
2018-07-05T20:40:16.990Z,24.62
2018-07-05T20:42:57.485Z,24.61
2018-07-05T20:45:37.462Z,24.56
2018-07-05T20:48:17.804Z,24.56
2018-07-05T20:50:57.888Z,24.56
2018-07-05T20:53:37.701Z,24.45
2018-07-05T20:56:17.531Z,24.47
2018-07-05T20:58:57.837Z,24.43
2018-07-05T21:01:37.886Z,24.43
2018-07-05T21:04:18.359Z,24.46
2018-07-05T21:06:58.407Z,24.43
2018-07-05T21:09:38.873Z,24.43
2018-07-05T21:12:18.906Z,24.51
2018-07-05T21:14:59.187Z,24.52
2018-07-05T21:17:38.887Z,24.43
2018-07-05T21:20:19.185Z,24.40
2018-07-05T21:22:59.213Z,24.39
2018-07-05T21:25:39.800Z,24.33
2018-07-05T21:28:19.731Z,24.30
2018-07-05T21:30:59.615Z,24.24
2018-07-05T21:33:39.553Z,24.22
2018-07-05T21:36:20.193Z,24.19
2018-07-05T21:39:00.371Z,23.86
2018-07-05T21:41:44.200Z,24.13
2018-07-05T21:44:24.075Z,24.13
2018-07-05T21:47:06.465Z,24.16
2018-07-05T21:49:47.327Z,24.12
2018-07-05T21:52:28.509Z,24.07
2018-07-05T21:55:08.687Z,24.06
2018-07-05T21:57:48.885Z,24.01
2018-07-05T22:00:28.896Z,24.03
2018-07-05T22:03:09.065Z,24.01
2018-07-05T22:05:50.292Z,23.97
2018-07-05T22:08:30.776Z,23.92
2018-07-05T22:11:10.737Z,23.92
2018-07-05T22:13:52.558Z,23.89
2018-07-05T22:16:35.263Z,23.83
2018-07-05T22:19:20.818Z,23.82
2018-07-05T22:22:06.085Z,23.82
2018-07-05T22:24:51.726Z,23.83
2018-07-05T22:27:36.935Z,23.80
2018-07-05T22:30:22.029Z,23.77
2018-07-05T22:33:02.008Z,23.74
2018-07-05T22:35:43.375Z,23.72
2018-07-05T22:38:23.144Z,23.76
2018-07-05T22:41:04.159Z,23.73
2018-07-05T22:43:43.926Z,23.72
2018-07-05T22:46:24.520Z,23.72
2018-07-05T22:49:04.585Z,23.68
2018-07-05T22:51:44.962Z,23.67
2018-07-05T22:54:25.086Z,23.62
2018-07-05T22:57:05.618Z,23.61
2018-07-05T22:59:45.678Z,23.58
2018-07-05T23:02:25.771Z,23.57
2018-07-05T23:05:05.904Z,23.53
2018-07-05T23:07:46.279Z,23.51
2018-07-05T23:10:26.085Z,23.47
2018-07-05T23:13:07.986Z,23.44
2018-07-05T23:15:50.322Z,23.41
2018-07-05T23:18:30.447Z,23.39
2018-07-05T23:21:10.299Z,23.39
2018-07-05T23:23:50.694Z,23.36
2018-07-05T23:26:31.203Z,23.36
2018-07-05T23:29:11.103Z,23.32
2018-07-05T23:31:51.041Z,23.30
2018-07-05T23:34:31.587Z,23.29
2018-07-05T23:37:11.638Z,23.27
2018-07-05T23:39:52.149Z,23.26
2018-07-05T23:42:32.117Z,23.22
2018-07-05T23:45:12.670Z,23.20
